Time;durP1;ratioP1;P1;durP2;ratioP2;P2;SDS_P1;SDS_P2;PMS_P1;PMS_P2;Temp;Humidity;BMP_temperature;BMP_pressure;BME280_temperature;BME280_humidity;BME280_pressure;Samples;Min_cycle;Max_cycle;Signal;HPM_P1;HPM_P2
2023/03/20 00:00:26;;;;;;;5.27;5.07;;;11.50;69.80;;;;;;6253340;28;20265;-81
2023/03/20 00:03:29;;;;;;;4.63;4.53;;;11.50;69.60;;;;;;6264898;28;20233;-81
2023/03/20 00:06:32;;;;;;;4.70;4.50;;;11.50;69.60;;;;;;6259358;28;20237;-82
2023/03/20 00:09:36;;;;;;;5.00;4.60;;;11.40;69.60;;;;;;6245376;28;20238;-82
2023/03/20 00:12:39;;;;;;;6.03;5.50;;;11.40;69.70;;;;;;6278806;28;20229;-81
2023/03/20 00:15:44;;;;;;;5.43;5.10;;;11.30;70.00;;;;;;6296056;28;20217;-78
2023/03/20 00:18:47;;;;;;;5.43;5.23;;;11.30;70.00;;;;;;6316985;28;20221;-79
2023/03/20 00:21:52;;;;;;;5.20;5.00;;;11.30;70.10;;;;;;6309105;28;20225;-78
2023/03/20 00:24:55;;;;;;;6.10;5.53;;;11.30;70.00;;;;;;6317228;28;20277;-78
2023/03/20 00:27:58;;;;;;;5.27;5.07;;;11.30;70.40;;;;;;6317456;28;20273;-77
2023/03/20 00:31:05;;;;;;;5.03;4.63;;;11.10;70.40;;;;;;6305009;28;20225;-78
2023/03/20 00:34:13;;;;;;;6.13;5.67;;;11.10;70.50;;;;;;6309352;28;20234;-79
2023/03/20 00:37:17;;;;;;;6.10;5.70;;;11.10;70.50;;;;;;6314157;28;20248;-77
2023/03/20 00:40:21;;;;;;;6.00;5.60;;;11.10;70.70;;;;;;6318188;28;20366;-80
2023/03/20 00:43:24;;;;;;;5.53;5.20;;;11.10;70.80;;;;;;6312421;28;20229;-77
2023/03/20 00:46:29;;;;;;;6.27;5.63;;;11.00;70.70;;;;;;6318063;28;20228;-76
2023/03/20 00:49:35;;;;;;;5.90;5.43;;;10.90;71.00;;;;;;6317755;28;20244;-78
2023/03/20 00:52:41;;;;;;;6.00;5.80;;;10.90;71.00;;;;;;6313681;28;20351;-77
2023/03/20 00:55:44;;;;;;;5.50;5.10;;;10.80;71.10;;;;;;6303487;28;20407;-77
2023/03/20 00:58:49;;;;;;;5.50;5.20;;;10.80;71.10;;;;;;6307277;28;20247;-78
2023/03/20 01:01:53;;;;;;;5.00;4.80;;;10.70;71.10;;;;;;6307919;28;20214;-78
2023/03/20 01:05:00;;;;;;;5.17;4.97;;;10.60;71.20;;;;;;6297217;28;20225;-77
2023/03/20 01:08:05;;;;;;;4.70;4.53;;;10.50;71.40;;;;;;6291744;28;20213;-78
2023/03/20 01:11:11;;;;;;;5.60;5.30;;;10.50;71.50;;;;;;6316902;28;20241;-76
2023/03/20 01:14:16;;;;;;;8.03;6.33;;;10.40;71.80;;;;;;6302782;28;20252;-77
2023/03/20 01:17:23;;;;;;;5.83;5.63;;;10.40;72.20;;;;;;6315417;28;20636;-78
2023/03/20 01:20:27;;;;;;;5.80;5.53;;;10.40;72.20;;;;;;6280847;28;20299;-82
2023/03/20 01:23:30;;;;;;;6.80;6.30;;;10.40;72.20;;;;;;6295921;28;20287;-76
2023/03/20 01:26:36;;;;;;;5.37;5.17;;;10.30;72.20;;;;;;6284301;28;20222;-77
2023/03/20 01:29:39;;;;;;;5.47;5.17;;;10.30;72.30;;;;;;6292311;28;20264;-79
2023/03/20 01:32:45;;;;;;;7.10;6.70;;;10.20;72.30;;;;;;6272926;28;20246;-81
2023/03/20 01:35:50;;;;;;;6.67;6.30;;;10.20;72.50;;;;;;6261650;28;20710;-82
2023/03/20 01:38:56;;;;;;;5.80;5.50;;;10.20;72.60;;;;;;6261785;28;20227;-80
2023/03/20 01:42:00;;;;;;;5.87;5.57;;;10.20;72.60;;;;;;6255652;28;20245;-82
2023/03/20 01:45:14;;;;;;;5.80;5.50;;;10.20;72.70;;;;;;6266112;28;20329;-82
2023/03/20 01:48:19;;;;;;;6.73;6.37;;;10.10;72.70;;;;;;6261038;28;20637;-81
2023/03/20 01:51:24;;;;;;;6.47;6.10;;;10.10;72.90;;;;;;6256360;28;20384;-80
2023/03/20 01:54:32;;;;;;;7.43;6.83;;;10.10;73.00;;;;;;6264482;28;20757;-79
2023/03/20 01:57:36;;;;;;;6.63;6.33;;;10.10;73.00;;;;;;6260421;28;20234;-82
2023/03/20 02:00:40;;;;;;;6.80;6.30;;;10.10;73.00;;;;;;6264478;28;20241;-81
2023/03/20 02:03:49;;;;;;;7.87;7.23;;;10.10;73.00;;;;;;6261439;28;20248;-82
2023/03/20 02:06:52;;;;;;;7.13;6.50;;;10.10;73.30;;;;;;6265403;28;20231;-80
2023/03/20 02:09:55;;;;;;;7.53;6.93;;;10.20;73.30;;;;;;6250251;28;20230;-81
2023/03/20 02:12:59;;;;;;;6.83;6.33;;;10.20;73.30;;;;;;6255616;28;20287;-81
2023/03/20 02:16:06;;;;;;;7.40;6.90;;;10.20;73.30;;;;;;6267957;28;20763;-80
2023/03/20 02:19:20;;;;;;;7.57;6.87;;;10.10;73.40;;;;;;6267150;28;20234;-83
2023/03/20 02:22:47;;;;;;;6.80;6.30;;;10.20;73.40;;;;;;6262815;28;20329;-81
2023/03/20 02:26:17;;;;;;;6.60;6.20;;;10.10;73.50;;;;;;6260372;28;20238;-81
2023/03/20 02:30:01;;;;;;;7.30;6.80;;;10.10;73.50;;;;;;6259175;28;20706;-80
2023/03/20 02:33:49;;;;;;;6.10;5.87;;;10.10;73.70;;;;;;6258145;28;20235;-81
2023/03/20 02:37:32;;;;;;;7.53;7.13;;;10.10;73.50;;;;;;6265766;28;20360;-80
2023/03/20 02:40:44;;;;;;;6.27;5.93;;;10.10;73.60;;;;;;6249530;28;20237;-80
2023/03/20 02:43:59;;;;;;;6.60;6.13;;;10.10;73.60;;;;;;6257909;28;20264;-81
2023/03/20 02:47:07;;;;;;;7.53;7.03;;;10.00;73.60;;;;;;6282904;28;20233;-81
2023/03/20 02:50:16;;;;;;;7.00;6.70;;;10.10;73.70;;;;;;6282441;28;20291;-82
2023/03/20 02:53:31;;;;;;;6.83;6.40;;;10.10;73.60;;;;;;6282645;28;20235;-81
2023/03/20 02:56:43;;;;;;;7.63;7.13;;;10.00;73.70;;;;;;6265557;28;20307;-81
2023/03/20 02:59:55;;;;;;;7.80;7.20;;;10.00;74.00;;;;;;6263819;28;20237;-81
2023/03/20 03:03:05;;;;;;;6.40;5.97;;;10.00;73.90;;;;;;6255868;28;20748;-83
2023/03/20 03:06:12;;;;;;;7.63;7.13;;;10.10;73.90;;;;;;6259580;28;20487;-82
2023/03/20 03:09:21;;;;;;;7.87;7.23;;;10.10;73.90;;;;;;6254614;28;20249;-83
2023/03/20 03:12:28;;;;;;;9.30;7.90;;;10.20;73.80;;;;;;6254646;28;20239;-81
2023/03/20 03:15:36;;;;;;;7.73;7.13;;;10.20;73.90;;;;;;6261746;28;20636;-81
2023/03/20 03:18:42;;;;;;;7.40;6.90;;;10.20;74.00;;;;;;6252842;28;20234;-81
2023/03/20 03:21:48;;;;;;;8.20;7.50;;;10.10;74.10;;;;;;6262213;28;20500;-84
2023/03/20 03:24:54;;;;;;;7.50;7.10;;;10.10;74.20;;;;;;6253394;28;20230;-83
2023/03/20 03:28:03;;;;;;;7.47;7.00;;;10.10;74.10;;;;;;6269514;28;20701;-80
2023/03/20 03:31:08;;;;;;;8.03;7.17;;;10.10;74.20;;;;;;6278324;28;20229;-79
2023/03/20 03:34:14;;;;;;;7.87;7.47;;;10.20;74.00;;;;;;6286655;28;20290;-85
2023/03/20 03:37:24;;;;;;;8.23;7.63;;;10.10;74.00;;;;;;6271955;28;20235;-81
2023/03/20 03:40:39;;;;;;;7.33;6.83;;;10.10;74.10;;;;;;6261588;28;20238;-80
2023/03/20 03:43:48;;;;;;;8.60;7.80;;;10.10;74.00;;;;;;6253690;28;20242;-82
2023/03/20 03:46:54;;;;;;;8.23;7.63;;;10.20;74.10;;;;;;6256622;28;20721;-83
2023/03/20 03:50:01;;;;;;;8.90;8.17;;;10.10;74.00;;;;;;6261636;28;20385;-81
2023/03/20 03:53:10;;;;;;;10.13;9.43;;;10.10;74.10;;;;;;6254320;28;20237;-83
2023/03/20 03:56:20;;;;;;;9.73;9.00;;;10.10;74.20;;;;;;6254376;28;20234;-82
2023/03/20 03:59:30;;;;;;;10.83;10.00;;;10.10;74.20;;;;;;6287045;28;20234;-80
2023/03/20 04:02:34;;;;;;;10.93;10.13;;;10.10;74.20;;;;;;6249484;28;20253;-80
2023/03/20 04:05:42;;;;;;;11.33;10.33;;;10.10;74.20;;;;;;6252534;28;20248;-83
2023/03/20 04:08:45;;;;;;;10.93;10.00;;;10.10;74.20;;;;;;6263721;28;20258;-82
2023/03/20 04:11:53;;;;;;;11.00;10.20;;;10.10;74.30;;;;;;6253587;28;20259;-80
2023/03/20 04:14:56;;;;;;;10.90;10.00;;;10.00;74.40;;;;;;6233490;28;20258;-78
2023/03/20 04:18:00;;;;;;;10.20;9.50;;;10.00;74.50;;;;;;6263028;28;20253;-82
2023/03/20 04:21:03;;;;;;;10.20;9.50;;;10.00;74.50;;;;;;6248628;28;20240;-83
2023/03/20 04:24:07;;;;;;;11.40;10.53;;;10.00;74.50;;;;;;6248511;28;20469;-81
2023/03/20 04:27:12;;;;;;;10.63;9.87;;;10.00;74.50;;;;;;6250828;28;20288;-81
2023/03/20 04:30:15;;;;;;;11.83;10.70;;;10.00;74.60;;;;;;6249721;28;20230;-83
2023/03/20 04:33:19;;;;;;;11.07;10.33;;;10.00;74.60;;;;;;6232599;28;20238;-82
2023/03/20 04:36:22;;;;;;;12.00;10.83;;;10.00;74.70;;;;;;6259703;28;20587;-81
2023/03/20 04:39:25;;;;;;;11.43;10.67;;;10.00;74.70;;;;;;6252818;28;20236;-81
2023/03/20 04:42:30;;;;;;;11.00;10.20;;;10.00;74.80;;;;;;6259336;28;20246;-77
2023/03/20 04:45:33;;;;;;;10.43;9.70;;;10.00;74.70;;;;;;6269530;28;20678;-79
2023/03/20 04:48:36;;;;;;;12.00;11.10;;;10.00;74.70;;;;;;6279206;28;20233;-78
2023/03/20 04:51:40;;;;;;;13.27;12.17;;;10.00;74.90;;;;;;6278464;28;20666;-79
2023/03/20 04:54:43;;;;;;;12.23;11.33;;;10.00;74.80;;;;;;6272040;28;20240;-79
2023/03/20 04:57:47;;;;;;;11.30;10.40;;;10.00;74.80;;;;;;6252018;28;20257;-80
2023/03/20 05:00:50;;;;;;;11.93;10.83;;;10.00;75.00;;;;;;6254538;28;20249;-79
2023/03/20 05:03:59;;;;;;;12.00;10.73;;;10.00;74.80;;;;;;6243947;28;20955;-80
2023/03/20 05:07:04;;;;;;;12.67;11.67;;;10.00;75.00;;;;;;6250824;28;20233;-79
2023/03/20 05:10:07;;;;;;;11.80;10.97;;;10.00;75.00;;;;;;6257513;28;20319;-80
2023/03/20 05:13:12;;;;;;;11.93;11.03;;;10.10;75.00;;;;;;6281278;28;20237;-79
2023/03/20 05:16:15;;;;;;;13.43;12.17;;;10.10;75.00;;;;;;6248197;28;20330;-79
2023/03/20 05:19:19;;;;;;;12.10;11.03;;;10.00;75.10;;;;;;6287081;28;20229;-79
2023/03/20 05:22:22;;;;;;;12.37;11.30;;;10.10;75.10;;;;;;6279333;28;20371;-78
2023/03/20 05:25:25;;;;;;;11.77;10.77;;;10.10;75.00;;;;;;6286565;28;20233;-79
2023/03/20 05:28:30;;;;;;;12.90;11.80;;;10.10;75.00;;;;;;6266100;28;20234;-78
2023/03/20 05:31:33;;;;;;;12.13;11.13;;;10.10;75.20;;;;;;6260458;28;20234;-80
2023/03/20 05:34:36;;;;;;;11.67;10.77;;;10.10;75.20;;;;;;6265653;28;20276;-80
2023/03/20 05:37:39;;;;;;;13.83;12.63;;;10.00;75.20;;;;;;6261823;28;20237;-78
2023/03/20 05:40:43;;;;;;;13.47;12.27;;;10.00;75.60;;;;;;6255175;28;20311;-79
2023/03/20 05:43:47;;;;;;;12.60;11.50;;;10.10;75.50;;;;;;6264743;28;20364;-80
2023/03/20 05:46:52;;;;;;;14.67;13.37;;;10.00;75.60;;;;;;6266405;28;20246;-81
2023/03/20 05:49:55;;;;;;;15.43;14.03;;;10.00;75.70;;;;;;6260045;28;20284;-80
2023/03/20 05:52:59;;;;;;;15.13;13.83;;;10.10;75.70;;;;;;6265237;28;21059;-79
2023/03/20 05:56:03;;;;;;;14.50;13.23;;;10.10;75.50;;;;;;6259253;28;20248;-80
2023/03/20 05:59:07;;;;;;;16.20;14.67;;;10.10;75.60;;;;;;6261356;28;20235;-78
2023/03/20 06:02:11;;;;;;;15.83;14.27;;;10.10;75.60;;;;;;6255761;28;21062;-79
2023/03/20 06:05:14;;;;;;;16.57;14.67;;;10.10;75.80;;;;;;6276249;28;20233;-80
2023/03/20 06:08:17;;;;;;;16.10;14.40;;;10.20;75.70;;;;;;6285069;28;20756;-79
2023/03/20 06:11:21;;;;;;;16.67;14.97;;;10.10;75.80;;;;;;6273253;28;20238;-78
2023/03/20 06:14:25;;;;;;;17.63;15.83;;;10.10;76.00;;;;;;6263843;28;20238;-80
2023/03/20 06:17:29;;;;;;;20.53;18.53;;;10.10;75.90;;;;;;6260736;28;20706;-79
2023/03/20 06:20:32;;;;;;;19.57;17.77;;;10.10;75.90;;;;;;6258819;28;20230;-80
2023/03/20 06:23:35;;;;;;;18.33;16.57;;;10.10;76.00;;;;;;6252023;28;20883;-79
2023/03/20 06:26:38;;;;;;;22.60;18.87;;;10.10;75.90;;;;;;6281963;28;20237;-78
2023/03/20 06:29:43;;;;;;;20.23;18.17;;;10.10;75.80;;;;;;6280154;28;20237;-79
2023/03/20 06:32:47;;;;;;;20.70;18.50;;;10.10;75.70;;;;;;6281857;28;20261;-74
2023/03/20 06:35:50;;;;;;;20.43;18.43;;;10.10;75.60;;;;;;6258946;28;20779;-77
2023/03/20 06:38:55;;;;;;;19.57;17.67;;;10.00;76.00;;;;;;6276554;28;20231;-74
2023/03/20 06:41:58;;;;;;;22.03;19.93;;;10.00;75.60;;;;;;6283261;28;20280;-80
2023/03/20 06:45:05;;;;;;;27.33;23.00;;;9.80;75.70;;;;;;6291767;28;20686;-80
2023/03/20 06:48:10;;;;;;;26.67;22.17;;;9.80;76.00;;;;;;6296429;28;20248;-79
2023/03/20 06:51:13;;;;;;;30.17;25.73;;;9.70;76.10;;;;;;6308404;28;20246;-79
2023/03/20 06:54:16;;;;;;;29.27;24.73;;;9.60;76.20;;;;;;6310844;28;20256;-75
2023/03/20 06:57:20;;;;;;;30.67;24.30;;;9.60;76.40;;;;;;6310443;28;20253;-77
2023/03/20 07:00:25;;;;;;;39.67;29.67;;;9.50;76.30;;;;;;6319967;28;20230;-79
2023/03/20 07:03:29;;;;;;;40.27;29.00;;;9.50;76.30;;;;;;6290339;28;20279;-77
2023/03/20 07:06:32;;;;;;;41.27;29.23;;;9.40;76.40;;;;;;6314227;28;20237;-77
2023/03/20 07:09:36;;;;;;;36.67;28.47;;;9.20;76.80;;;;;;6313931;28;20232;-76
2023/03/20 07:12:40;;;;;;;44.93;30.43;;;9.20;76.90;;;;;;6289829;28;20328;-80
2023/03/20 07:15:44;;;;;;;40.70;28.53;;;9.20;77.10;;;;;;6278853;28;20244;-80
2023/03/20 07:19:05;;;;;;;36.37;28.13;;;9.30;76.80;;;;;;6270400;28;20254;-79
2023/03/20 07:22:15;;;;;;;36.77;26.40;;;9.20;76.70;;;;;;6255111;28;20240;-79
2023/03/20 07:25:18;;;;;;;39.30;29.53;;;9.20;76.90;;;;;;6265165;28;20309;-80
2023/03/20 07:28:37;;;;;;;38.60;26.80;;;9.20;77.00;;;;;;6284674;28;20237;-77
2023/03/20 07:31:42;;;;;;;37.93;26.80;;;9.20;77.00;;;;;;6284964;28;20262;-78
2023/03/20 07:34:46;;;;;;;38.13;28.23;;;9.20;76.80;;;;;;6260764;28;20241;-80
2023/03/20 07:37:49;;;;;;;35.80;26.20;;;9.20;76.60;;;;;;6255673;28;20234;-79
2023/03/20 07:40:54;;;;;;;38.33;27.57;;;9.20;76.70;;;;;;6249531;28;20248;-82
2023/03/20 07:43:57;;;;;;;41.40;28.10;;;9.10;76.90;;;;;;6282230;28;20226;-78
2023/03/20 07:47:02;;;;;;;36.23;25.30;;;9.00;77.20;;;;;;6298011;28;20241;-77
2023/03/20 07:50:06;;;;;;;35.97;24.43;;;9.00;77.20;;;;;;6295794;28;20300;-79
2023/03/20 07:53:10;;;;;;;29.83;22.67;;;9.00;77.20;;;;;;6295628;28;20241;-76
2023/03/20 07:56:13;;;;;;;29.33;20.77;;;9.00;76.80;;;;;;6293936;28;20226;-76
2023/03/20 07:59:17;;;;;;;30.33;22.33;;;9.00;76.60;;;;;;6296608;28;20432;-75
2023/03/20 08:02:21;;;;;;;31.63;23.17;;;9.10;76.20;;;;;;6276982;28;20325;-81
2023/03/20 08:05:25;;;;;;;31.50;22.03;;;9.00;76.30;;;;;;6268070;28;20313;-80
2023/03/20 08:08:28;;;;;;;34.90;24.17;;;9.20;76.40;;;;;;6252215;28;20237;-81
2023/03/20 08:11:31;;;;;;;34.00;23.50;;;9.20;76.10;;;;;;6269548;28;20244;-82
2023/03/20 08:14:38;;;;;;;38.47;24.20;;;9.20;76.00;;;;;;6249936;28;20239;-77
2023/03/20 08:17:44;;;;;;;32.83;23.63;;;9.40;75.90;;;;;;6259646;28;20719;-77
2023/03/20 08:20:49;;;;;;;31.10;21.53;;;9.50;75.60;;;;;;6257671;28;20313;-79
2023/03/20 08:23:51;;;;;;;30.57;22.90;;;9.70;75.00;;;;;;6249111;28;20653;-79
2023/03/20 08:26:55;;;;;;;30.43;21.63;;;9.70;74.60;;;;;;6271626;28;20237;-80
2023/03/20 08:29:58;;;;;;;29.30;21.23;;;9.70;74.30;;;;;;6246304;28;20237;-81
2023/03/20 08:33:02;;;;;;;32.57;22.27;;;9.80;74.30;;;;;;6276122;28;20237;-80
2023/03/20 08:36:06;;;;;;;30.00;21.10;;;9.80;74.00;;;;;;6274814;28;20736;-78
2023/03/20 08:39:09;;;;;;;33.37;22.83;;;9.80;73.90;;;;;;6276123;28;20299;-80
2023/03/20 08:42:12;;;;;;;31.17;21.77;;;9.80;73.50;;;;;;6280590;28;20324;-77
2023/03/20 08:45:16;;;;;;;30.87;21.53;;;9.80;73.50;;;;;;6281274;28;20229;-80
2023/03/20 08:48:21;;;;;;;32.10;22.07;;;9.80;73.40;;;;;;6280742;28;20233;-80
2023/03/20 08:51:24;;;;;;;30.17;22.40;;;9.80;73.50;;;;;;6277063;28;20229;-79
2023/03/20 08:54:29;;;;;;;31.50;23.63;;;10.00;73.20;;;;;;6277562;28;20225;-80
2023/03/20 08:57:32;;;;;;;35.57;23.53;;;10.30;72.40;;;;;;6285759;28;20244;-79
2023/03/20 09:00:36;;;;;;;43.00;27.07;;;10.40;72.30;;;;;;6280322;28;20324;-81
2023/03/20 09:03:41;;;;;;;32.47;22.70;;;10.60;71.60;;;;;;6281053;28;20230;-79
2023/03/20 09:06:44;;;;;;;30.63;21.07;;;10.90;71.50;;;;;;6282725;28;20234;-81
2023/03/20 09:09:47;;;;;;;29.17;21.93;;;11.10;70.40;;;;;;6253582;28;20234;-81
2023/03/20 09:12:50;;;;;;;29.07;20.83;;;11.20;69.30;;;;;;6267458;28;20238;-80
2023/03/20 09:15:54;;;;;;;26.10;19.63;;;11.20;68.50;;;;;;6262001;28;20289;-80
2023/03/20 09:19:00;;;;;;;25.67;18.70;;;11.20;68.70;;;;;;6261398;28;20722;-78
2023/03/20 09:22:03;;;;;;;21.67;18.03;;;11.50;68.70;;;;;;6255139;28;20238;-80
2023/03/20 09:25:07;;;;;;;25.33;17.80;;;11.70;67.90;;;;;;6260879;28;20234;-81
2023/03/20 09:28:10;;;;;;;22.43;16.73;;;11.50;67.10;;;;;;6254664;28;20233;-78
2023/03/20 09:31:13;;;;;;;24.23;17.83;;;11.50;66.90;;;;;;6248616;28;20241;-79
2023/03/20 09:34:18;;;;;;;21.77;15.67;;;11.70;66.10;;;;;;6251839;28;20715;-79
2023/03/20 09:37:20;;;;;;;20.27;15.00;;;11.60;65.80;;;;;;6256344;28;20241;-81
2023/03/20 09:40:28;;;;;;;18.93;15.37;;;11.50;66.10;;;;;;6249019;28;20234;-79
2023/03/20 09:43:48;;;;;;;19.60;15.10;;;11.70;66.00;;;;;;6245768;28;20237;-79
2023/03/20 09:47:09;;;;;;;18.73;14.27;;;11.70;65.40;;;;;;6257878;28;20730;-78
2023/03/20 09:50:30;;;;;;;19.47;15.47;;;11.60;65.60;;;;;;6281293;28;20396;-80
2023/03/20 09:53:39;;;;;;;20.70;14.47;;;11.40;66.20;;;;;;6256831;28;20225;-77
2023/03/20 09:56:42;;;;;;;18.37;15.70;;;11.30;66.70;;;;;;6283025;28;20242;-81
2023/03/20 09:59:46;;;;;;;16.80;14.90;;;11.30;66.80;;;;;;6288884;28;20245;-78
2023/03/20 10:02:52;;;;;;;18.43;14.27;;;11.50;66.30;;;;;;6283036;28;20232;-77
2023/03/20 10:06:00;;;;;;;17.13;14.87;;;11.50;66.20;;;;;;6282893;28;20240;-79
2023/03/20 10:09:15;;;;;;;19.47;14.13;;;11.60;66.10;;;;;;6285511;28;20244;-80
2023/03/20 10:12:34;;;;;;;15.67;13.40;;;11.70;65.70;;;;;;6245212;28;20241;-80
2023/03/20 10:15:47;;;;;;;15.47;13.03;;;11.70;65.70;;;;;;6264018;28;20342;-78
2023/03/20 10:19:00;;;;;;;12.90;11.33;;;11.60;65.20;;;;;;6262938;28;20238;-79
2023/03/20 10:22:16;;;;;;;13.00;10.93;;;11.70;64.70;;;;;;6265744;28;20255;-79
2023/03/20 10:25:24;;;;;;;14.27;11.00;;;11.70;64.10;;;;;;6256278;28;20234;-76
2023/03/20 10:28:33;;;;;;;12.37;11.10;;;11.70;63.90;;;;;;6261420;28;20261;-79
2023/03/20 10:31:45;;;;;;;12.23;11.03;;;11.80;63.60;;;;;;6261949;28;20243;-80
2023/03/20 10:35:01;;;;;;;13.70;10.70;;;11.70;64.20;;;;;;6246887;28;20829;-78
2023/03/20 10:38:17;;;;;;;11.67;10.47;;;11.60;64.00;;;;;;6262594;28;20241;-79
2023/03/20 10:41:25;;;;;;;12.33;10.57;;;11.50;64.30;;;;;;6263137;28;20241;-80
2023/03/20 10:44:33;;;;;;;11.80;10.60;;;11.50;64.20;;;;;;6265004;28;20241;-79
2023/03/20 10:47:41;;;;;;;11.03;9.93;;;11.50;64.40;;;;;;6260254;28;20237;-78
2023/03/20 10:50:49;;;;;;;12.37;9.60;;;11.50;64.70;;;;;;6246432;28;20238;-79
2023/03/20 10:54:00;;;;;;;11.87;10.20;;;11.50;64.00;;;;;;6259037;28;20229;-77
2023/03/20 10:57:06;;;;;;;13.17;10.33;;;11.60;64.10;;;;;;6255012;28;20242;-78
2023/03/20 11:00:18;;;;;;;11.43;10.23;;;11.50;63.90;;;;;;6275050;28;20233;-78
2023/03/20 11:03:26;;;;;;;11.17;9.90;;;11.50;63.80;;;;;;6263640;28;20226;-80
2023/03/20 11:06:33;;;;;;;10.67;9.57;;;11.50;63.90;;;;;;6259319;28;20379;-79
2023/03/20 11:09:38;;;;;;;10.90;9.37;;;11.50;63.90;;;;;;6259764;28;20391;-81
2023/03/20 11:12:43;;;;;;;10.73;9.63;;;11.50;64.20;;;;;;6288097;28;20229;-77
2023/03/20 11:15:47;;;;;;;10.37;9.33;;;11.40;64.30;;;;;;6271069;28;20238;-81
2023/03/20 11:18:53;;;;;;;10.17;9.20;;;11.50;64.30;;;;;;6253453;28;20262;-81
2023/03/20 11:21:59;;;;;;;11.63;10.43;;;11.60;64.20;;;;;;6264421;28;20311;-79
2023/03/20 11:25:05;;;;;;;11.00;9.80;;;11.70;64.40;;;;;;6259085;28;20288;-79
2023/03/20 11:28:30;;;;;;;10.63;9.60;;;11.60;64.10;;;;;;6277406;28;20614;-79
2023/03/20 11:31:35;;;;;;;9.77;8.77;;;11.70;64.10;;;;;;6255301;28;20315;-80
2023/03/20 11:34:42;;;;;;;11.50;9.70;;;11.90;63.80;;;;;;6259829;28;20307;-81
2023/03/20 11:37:47;;;;;;;12.13;9.97;;;11.90;63.70;;;;;;6256559;28;20309;-80
2023/03/20 11:40:55;;;;;;;12.63;9.83;;;11.90;63.80;;;;;;6244187;28;20321;-80
2023/03/20 11:43:58;;;;;;;10.03;8.90;;;12.00;63.10;;;;;;6259948;28;20269;-80
2023/03/20 11:47:03;;;;;;;12.10;9.80;;;12.10;63.30;;;;;;6285751;28;20249;-78
2023/03/20 11:50:24;;;;;;;10.87;9.43;;;12.30;62.40;;;;;;6254022;28;20621;-80
2023/03/20 11:53:31;;;;;;;12.57;9.43;;;12.30;62.70;;;;;;6266144;28;20223;-80
2023/03/20 11:56:36;;;;;;;10.30;8.97;;;12.30;62.30;;;;;;6252186;28;20234;-80
2023/03/20 11:59:40;;;;;;;10.90;9.80;;;12.20;62.50;;;;;;6247526;28;20245;-81
2023/03/20 12:02:44;;;;;;;10.47;9.47;;;12.20;62.30;;;;;;6255293;28;20238;-80
2023/03/20 12:05:47;;;;;;;10.67;9.47;;;12.20;62.20;;;;;;6257507;28;20258;-79
2023/03/20 12:08:55;;;;;;;11.23;10.03;;;12.10;62.30;;;;;;6259737;28;20260;-79
2023/03/20 12:12:02;;;;;;;11.23;10.13;;;12.00;62.40;;;;;;6260853;28;20238;-80
2023/03/20 12:15:15;;;;;;;12.70;10.23;;;11.90;62.60;;;;;;6263750;28;20233;-79
2023/03/20 12:18:25;;;;;;;10.60;9.60;;;11.90;63.00;;;;;;6249579;28;20957;-81
2023/03/20 12:21:34;;;;;;;14.20;9.83;;;11.80;63.20;;;;;;6255366;28;20253;-79
2023/03/20 12:24:41;;;;;;;11.97;9.90;;;11.90;63.30;;;;;;6275401;28;20234;-81
2023/03/20 12:27:53;;;;;;;13.27;10.57;;;11.90;62.70;;;;;;6262903;28;20317;-82
2023/03/20 12:31:04;;;;;;;12.63;9.60;;;11.90;62.60;;;;;;6259294;28;20241;-79
2023/03/20 12:34:12;;;;;;;12.63;10.10;;;12.00;62.60;;;;;;6257197;28;20238;-80
2023/03/20 12:37:17;;;;;;;11.93;10.73;;;12.10;62.50;;;;;;6244933;28;20234;-79
2023/03/20 12:40:28;;;;;;;11.73;9.00;;;12.10;61.80;;;;;;6261988;28;20244;-80
2023/03/20 12:43:44;;;;;;;11.03;9.83;;;12.10;61.40;;;;;;6266836;28;20230;-80
2023/03/20 12:46:56;;;;;;;11.70;10.53;;;12.00;61.50;;;;;;6259286;28;20249;-79
2023/03/20 12:50:07;;;;;;;18.53;10.43;;;12.00;61.30;;;;;;6270391;28;20756;-80
2023/03/20 12:53:35;;;;;;;12.20;10.13;;;11.90;61.60;;;;;;6261680;28;20585;-80
2023/03/20 12:56:57;;;;;;;10.70;9.60;;;11.90;61.90;;;;;;6255413;28;20275;-79
2023/03/20 13:00:19;;;;;;;11.50;10.10;;;11.90;62.20;;;;;;6267514;28;20260;-81
2023/03/20 13:03:52;;;;;;;12.33;10.53;;;11.90;62.30;;;;;;6267256;28;20662;-81
2023/03/20 13:06:59;;;;;;;13.27;10.93;;;11.90;62.20;;;;;;6249094;28;20305;-81
2023/03/20 13:10:19;;;;;;;13.07;11.07;;;12.10;61.90;;;;;;6266650;28;20265;-78
2023/03/20 13:13:32;;;;;;;11.93;10.70;;;12.20;61.80;;;;;;6251416;28;20736;-79
2023/03/20 13:16:45;;;;;;;12.90;11.60;;;12.10;62.00;;;;;;6259415;28;20854;-80
2023/03/20 13:20:02;;;;;;;12.30;10.97;;;12.10;62.00;;;;;;6247645;28;20680;-80
2023/03/20 13:23:20;;;;;;;14.60;11.47;;;12.00;62.20;;;;;;6248945;28;20234;-79
2023/03/20 13:26:35;;;;;;;12.97;11.53;;;12.10;62.30;;;;;;6249705;28;20237;-80
2023/03/20 13:29:48;;;;;;;14.50;12.00;;;11.90;62.60;;;;;;6258568;28;20272;-79
2023/03/20 13:33:02;;;;;;;13.10;11.47;;;11.90;63.20;;;;;;6259820;28;20234;-81
2023/03/20 13:36:17;;;;;;;14.77;11.83;;;12.00;63.20;;;;;;6218240;28;20770;-80
2023/03/20 13:39:24;;;;;;;13.53;12.13;;;12.10;62.90;;;;;;6249852;28;20257;-80
2023/03/20 13:42:32;;;;;;;16.20;12.87;;;12.10;62.70;;;;;;6254624;28;20230;-81
2023/03/20 13:45:38;;;;;;;13.43;11.73;;;12.10;62.70;;;;;;6278942;28;20246;-80
2023/03/20 13:48:44;;;;;;;14.50;12.30;;;12.00;62.80;;;;;;6276271;28;20241;-79
2023/03/20 13:51:53;;;;;;;17.63;12.57;;;12.00;63.10;;;;;;6270669;28;20242;-80
2023/03/20 13:55:18;;;;;;;14.57;13.00;;;12.00;63.30;;;;;;6265468;28;20351;-81
2023/03/20 13:58:37;;;;;;;17.43;13.33;;;12.10;63.10;;;;;;6257999;28;20368;-79
2023/03/20 14:01:49;;;;;;;17.67;13.70;;;12.10;62.90;;;;;;6252585;28;20742;-79
2023/03/20 14:05:00;;;;;;;17.53;13.83;;;12.00;62.90;;;;;;6260598;28;20233;-80
2023/03/20 14:08:22;;;;;;;18.67;14.47;;;11.90;63.50;;;;;;6279592;28;20237;-80
2023/03/20 14:11:43;;;;;;;16.10;13.67;;;11.90;63.60;;;;;;6249625;28;20241;-79
2023/03/20 14:14:50;;;;;;;19.73;15.03;;;11.90;63.60;;;;;;6277027;28;20229;-81
2023/03/20 14:17:55;;;;;;;16.20;14.47;;;11.90;63.70;;;;;;6287802;28;20237;-79
2023/03/20 14:21:01;;;;;;;16.53;13.83;;;11.70;63.90;;;;;;6265346;28;20238;-78
2023/03/20 14:24:06;;;;;;;17.90;13.90;;;11.70;64.10;;;;;;6262359;28;20408;-79
2023/03/20 14:27:17;;;;;;;19.63;14.00;;;11.70;64.10;;;;;;6260674;28;20727;-80
2023/03/20 14:30:41;;;;;;;18.83;14.20;;;11.60;64.00;;;;;;6256682;28;20238;-80
2023/03/20 14:33:45;;;;;;;16.83;14.50;;;11.60;64.30;;;;;;6285480;28;20229;-78
2023/03/20 14:36:57;;;;;;;18.50;14.23;;;11.50;64.40;;;;;;6260153;28;20266;-79
2023/03/20 14:40:10;;;;;;;16.27;14.50;;;11.50;64.70;;;;;;6251461;28;20247;-82
2023/03/20 14:43:20;;;;;;;18.10;13.63;;;11.50;64.70;;;;;;6248486;28;20821;-80
2023/03/20 14:46:31;;;;;;;20.43;16.70;;;11.50;64.60;;;;;;6280241;28;20739;-78
2023/03/20 14:49:50;;;;;;;15.57;13.90;;;11.50;64.70;;;;;;6262142;28;20233;-78
2023/03/20 14:53:03;;;;;;;15.57;13.70;;;11.40;65.10;;;;;;6266278;28;20323;-78
2023/03/20 14:56:09;;;;;;;21.07;15.00;;;11.40;65.20;;;;;;6258528;28;20289;-79
2023/03/20 14:59:16;;;;;;;19.07;14.60;;;11.30;65.40;;;;;;6272553;28;20894;-80
2023/03/20 15:02:26;;;;;;;17.63;14.33;;;11.30;65.50;;;;;;6261554;28;20952;-80
2023/03/20 15:05:32;;;;;;;20.73;14.57;;;11.30;65.70;;;;;;6247515;28;20908;-79
2023/03/20 15:08:44;;;;;;;19.07;14.77;;;11.30;65.70;;;;;;6254068;28;20230;-79
2023/03/20 15:11:47;;;;;;;16.40;13.17;;;11.30;65.90;;;;;;6263186;28;20283;-81
2023/03/20 15:14:55;;;;;;;16.00;12.50;;;11.30;65.90;;;;;;6259122;28;20894;-80
2023/03/20 15:18:04;;;;;;;22.33;14.73;;;11.30;65.90;;;;;;6256953;28;20264;-80
2023/03/20 15:21:13;;;;;;;22.03;15.67;;;11.30;65.90;;;;;;6262971;28;20257;-81
2023/03/20 15:24:21;;;;;;;20.93;15.03;;;11.30;65.90;;;;;;6260712;28;20812;-80
2023/03/20 15:27:28;;;;;;;23.77;15.27;;;11.30;66.00;;;;;;6258246;28;20713;-81
2023/03/20 15:30:33;;;;;;;21.80;15.67;;;11.30;65.90;;;;;;6264338;28;20246;-78
2023/03/20 15:33:42;;;;;;;19.73;14.47;;;11.30;65.70;;;;;;6250424;28;20250;-82
2023/03/20 15:36:45;;;;;;;17.87;15.23;;;11.40;65.80;;;;;;6250270;28;20368;-80
2023/03/20 15:39:52;;;;;;;19.10;15.27;;;11.40;66.00;;;;;;6255150;28;20265;-80
2023/03/20 15:42:58;;;;;;;22.00;17.00;;;11.30;65.80;;;;;;6260492;28;20241;-79
2023/03/20 15:46:01;;;;;;;22.60;16.77;;;11.30;65.90;;;;;;6244610;28;20257;-79
2023/03/20 15:49:21;;;;;;;20.47;15.70;;;11.30;65.80;;;;;;6241199;28;20616;-81
2023/03/20 15:52:31;;;;;;;18.73;15.50;;;11.20;66.00;;;;;;6267274;28;20238;-80
2023/03/20 15:55:36;;;;;;;21.30;16.60;;;11.20;66.10;;;;;;6258670;28;20613;-78
2023/03/20 15:58:41;;;;;;;22.17;16.57;;;11.10;65.90;;;;;;6251348;28;20242;-80